createdAt,value
2019-03-03T00:01:26.623Z,73.87
2019-03-03T00:03:56.338Z,79.57
2019-03-03T00:06:26.013Z,91.07
2019-03-03T00:08:55.814Z,80.27
2019-03-03T00:11:25.551Z,76.10
2019-03-03T00:13:55.294Z,80.77
2019-03-03T00:16:25.026Z,71.47
2019-03-03T00:18:54.809Z,77.23
2019-03-03T00:21:24.491Z,70.17
2019-03-03T00:23:54.198Z,78.13
2019-03-03T00:26:24.003Z,67.70
2019-03-03T00:28:53.684Z,70.87
2019-03-03T00:31:36.528Z,75.37
2019-03-03T00:34:06.298Z,65.77
2019-03-03T00:36:53.477Z,68.77
2019-03-03T00:39:40.712Z,73.83
2019-03-03T00:42:38.462Z,67.37
2019-03-03T00:45:34.131Z,63.60
2019-03-03T00:48:21.462Z,67.30
2019-03-03T00:51:26.665Z,67.83
2019-03-03T00:54:13.732Z,66.43
2019-03-03T00:56:51.047Z,61.63
2019-03-03T00:59:26.132Z,62.70
2019-03-03T01:02:10.697Z,64.00
2019-03-03T01:05:14.202Z,63.93
2019-03-03T01:08:02.951Z,66.37
2019-03-03T01:10:47.310Z,65.70
2019-03-03T01:13:35.930Z,65.80
2019-03-03T01:16:21.469Z,75.43
2019-03-03T01:19:06.546Z,66.23
2019-03-03T01:21:49.943Z,68.17
2019-03-03T01:24:36.917Z,69.53
2019-03-03T01:27:06.634Z,67.70
2019-03-03T01:29:36.315Z,64.43
2019-03-03T01:32:06.168Z,63.93
2019-03-03T01:34:35.818Z,65.93
2019-03-03T01:37:05.743Z,64.53
2019-03-03T01:39:35.426Z,69.67
2019-03-03T01:42:05.191Z,65.40
2019-03-03T01:44:34.861Z,64.10
2019-03-03T01:47:04.640Z,63.33
2019-03-03T01:49:34.352Z,67.60
2019-03-03T01:52:04.098Z,59.90
2019-03-03T01:54:33.763Z,67.63
2019-03-03T01:57:03.468Z,73.30
2019-03-03T01:59:33.139Z,70.80
2019-03-03T02:02:02.894Z,72.63
2019-03-03T02:04:32.618Z,66.30
2019-03-03T02:07:02.361Z,66.80
2019-03-03T02:09:32.239Z,66.40
2019-03-03T02:12:01.965Z,62.23
2019-03-03T02:14:31.851Z,57.87
2019-03-03T02:17:01.674Z,66.80
2019-03-03T02:19:31.583Z,63.47
2019-03-03T02:22:01.294Z,59.73
2019-03-03T02:24:31.079Z,61.60
2019-03-03T02:27:00.829Z,65.37
2019-03-03T02:29:30.537Z,65.30
2019-03-03T02:32:00.275Z,60.20
2019-03-03T02:34:29.983Z,65.97
2019-03-03T02:36:59.740Z,58.10
2019-03-03T02:39:29.423Z,60.47
2019-03-03T02:41:59.213Z,61.27
2019-03-03T02:44:28.947Z,61.93
2019-03-03T02:46:58.672Z,75.27
2019-03-03T02:49:28.425Z,63.83
2019-03-03T02:51:58.116Z,58.37
2019-03-03T02:54:28.158Z,60.80
2019-03-03T02:56:57.801Z,70.40
2019-03-03T02:59:27.567Z,63.93
2019-03-03T03:02:00.945Z,66.63
2019-03-03T03:04:31.868Z,60.53
2019-03-03T03:07:29.503Z,65.00
2019-03-03T03:10:06.943Z,56.43
2019-03-03T03:12:55.626Z,61.83
2019-03-03T03:15:50.600Z,71.00
2019-03-03T03:18:39.176Z,64.77
2019-03-03T03:21:27.791Z,61.50
2019-03-03T03:24:09.075Z,66.57
2019-03-03T03:26:54.409Z,67.30
2019-03-03T03:29:40.034Z,64.17
2019-03-03T03:32:34.477Z,69.53
2019-03-03T03:35:29.579Z,72.80
2019-03-03T03:38:21.381Z,62.63
2019-03-03T03:41:27.928Z,64.10
2019-03-03T03:44:06.723Z,62.90
2019-03-03T03:46:58.132Z,69.63
2019-03-03T03:49:49.630Z,71.43
2019-03-03T03:52:44.442Z,60.60
2019-03-03T03:55:33.227Z,65.33
2019-03-03T03:58:27.786Z,64.20
2019-03-03T04:01:16.395Z,61.53
2019-03-03T04:04:03.439Z,66.67
2019-03-03T04:06:50.836Z,64.73
2019-03-03T04:09:37.897Z,62.30
2019-03-03T04:12:29.733Z,65.03
2019-03-03T04:15:13.824Z,62.90
2019-03-03T04:17:49.729Z,59.50
2019-03-03T04:20:25.919Z,64.53
2019-03-03T04:23:12.513Z,61.97
2019-03-03T04:26:01.099Z,65.00
2019-03-03T04:28:58.606Z,63.80
2019-03-03T04:31:42.774Z,61.70
2019-03-03T04:34:24.626Z,60.80
2019-03-03T04:37:13.158Z,62.73
2019-03-03T04:40:06.841Z,69.00
2019-03-03T04:42:52.165Z,57.03
2019-03-03T04:45:35.906Z,57.43
2019-03-03T04:48:18.570Z,68.30
2019-03-03T04:50:58.035Z,66.27
2019-03-03T04:53:35.523Z,61.60
2019-03-03T04:56:16.421Z,64.63
2019-03-03T04:59:03.463Z,58.43
2019-03-03T05:01:52.052Z,64.83
2019-03-03T05:04:30.366Z,62.70
2019-03-03T05:07:16.139Z,64.53
2019-03-03T05:09:51.728Z,61.20
2019-03-03T05:12:42.588Z,56.83
2019-03-03T05:15:38.705Z,62.97
2019-03-03T05:18:19.400Z,57.50
2019-03-03T05:20:50.757Z,64.43
2019-03-03T05:23:20.510Z,66.90
2019-03-03T05:25:50.235Z,59.93
2019-03-03T05:28:19.930Z,55.50
2019-03-03T05:30:49.783Z,60.70
2019-03-03T05:33:19.533Z,59.37
2019-03-03T05:35:49.232Z,58.97
2019-03-03T05:38:19.071Z,62.70
2019-03-03T05:40:48.735Z,67.50
2019-03-03T05:43:18.498Z,55.30
2019-03-03T05:45:48.223Z,60.00
2019-03-03T05:48:20.159Z,56.50
2019-03-03T05:50:49.916Z,57.77
2019-03-03T05:53:19.615Z,70.57
2019-03-03T05:55:49.348Z,65.70
2019-03-03T05:58:19.113Z,64.90
2019-03-03T06:00:49.157Z,80.30
2019-03-03T06:03:18.857Z,84.33
2019-03-03T06:05:48.596Z,94.10
2019-03-03T06:08:18.380Z,85.23
2019-03-03T06:10:48.037Z,90.70
2019-03-03T06:13:17.845Z,90.83
2019-03-03T06:15:47.550Z,85.60
2019-03-03T06:18:17.265Z,82.63
2019-03-03T06:20:47.044Z,77.43
2019-03-03T06:23:16.809Z,76.50
2019-03-03T06:25:46.675Z,79.63
2019-03-03T06:28:16.424Z,81.63
2019-03-03T06:30:46.155Z,78.17
2019-03-03T06:33:15.838Z,66.40
2019-03-03T06:35:45.756Z,64.70
2019-03-03T06:38:15.448Z,71.90
2019-03-03T06:40:45.186Z,69.37
2019-03-03T06:43:14.956Z,59.50
2019-03-03T06:45:44.845Z,60.83
2019-03-03T06:48:14.546Z,64.37
2019-03-03T06:50:44.321Z,58.00
2019-03-03T06:53:14.088Z,60.90
2019-03-03T06:55:43.787Z,57.87
2019-03-03T06:58:13.867Z,60.40
2019-03-03T07:00:43.702Z,60.47
2019-03-03T07:03:13.405Z,63.67
2019-03-03T07:05:43.062Z,58.47
2019-03-03T07:08:12.884Z,60.47
2019-03-03T07:10:42.665Z,56.77
2019-03-03T07:13:12.530Z,55.47
2019-03-03T07:15:42.373Z,54.27
2019-03-03T07:18:12.131Z,56.47
2019-03-03T07:20:41.835Z,60.67
2019-03-03T07:23:11.819Z,56.53
2019-03-03T07:25:41.518Z,56.07
2019-03-03T07:28:11.543Z,60.60
2019-03-03T07:30:41.226Z,58.07
2019-03-03T07:33:25.670Z,59.23
2019-03-03T07:35:55.372Z,58.07
2019-03-03T07:38:25.140Z,53.77
2019-03-03T07:40:56.172Z,58.70
2019-03-03T07:43:25.890Z,62.03
2019-03-03T07:45:55.565Z,58.47
2019-03-03T07:48:25.242Z,59.13
2019-03-03T07:50:55.026Z,59.63
2019-03-03T07:53:24.944Z,59.27
2019-03-03T07:55:54.636Z,57.77
2019-03-03T07:58:24.437Z,57.63
2019-03-03T08:00:54.566Z,61.37
2019-03-03T08:03:24.388Z,57.03
2019-03-03T08:05:54.086Z,57.83
2019-03-03T08:08:24.416Z,59.03
2019-03-03T08:10:54.210Z,61.37
2019-03-03T08:13:23.938Z,62.20
2019-03-03T08:15:53.882Z,60.47
2019-03-03T08:18:23.884Z,71.47
2019-03-03T08:20:53.629Z,68.40
2019-03-03T08:23:23.483Z,62.90
2019-03-03T08:25:53.251Z,69.20
2019-03-03T08:28:22.941Z,69.97
2019-03-03T08:30:55.176Z,78.40
2019-03-03T08:33:24.939Z,74.17
2019-03-03T08:35:54.719Z,70.10
2019-03-03T08:38:25.466Z,75.40
2019-03-03T08:40:55.212Z,74.73
2019-03-03T08:43:44.007Z,68.57
2019-03-03T08:46:34.798Z,70.43
2019-03-03T08:49:15.323Z,69.73
2019-03-03T08:51:59.677Z,61.63
2019-03-03T08:54:48.504Z,64.17
2019-03-03T08:57:40.152Z,65.97
2019-03-03T09:00:34.689Z,63.60
2019-03-03T09:03:29.314Z,65.97
2019-03-03T09:06:20.795Z,59.83
2019-03-03T09:09:09.378Z,66.70
2019-03-03T09:11:57.567Z,60.67
2019-03-03T09:14:47.925Z,63.13
2019-03-03T09:17:42.510Z,61.43
2019-03-03T09:20:18.324Z,65.20
2019-03-03T09:23:03.637Z,60.93
2019-03-03T09:29:03.864Z,58.13
2019-03-03T09:31:52.507Z,60.80
2019-03-03T09:34:44.815Z,60.20
2019-03-03T09:37:39.808Z,66.37
2019-03-03T09:40:29.806Z,61.40
2019-03-03T09:43:27.356Z,61.87
2019-03-03T09:46:31.106Z,60.67
2019-03-03T09:49:23.747Z,61.77
2019-03-03T09:52:07.956Z,70.37
2019-03-03T09:54:43.111Z,56.67
2019-03-03T09:57:31.121Z,63.00
2019-03-03T10:00:32.121Z,56.17
2019-03-03T10:03:08.747Z,55.30
2019-03-03T10:06:03.432Z,50.23
2019-03-03T10:08:50.421Z,52.43
2019-03-03T10:11:34.026Z,50.20
2019-03-03T10:14:31.771Z,45.93
2019-03-03T10:17:16.438Z,53.30
2019-03-03T10:19:54.743Z,50.90
2019-03-03T10:22:36.495Z,52.77
2019-03-03T10:25:26.887Z,51.17
2019-03-03T10:28:18.933Z,50.30
2019-03-03T10:30:58.180Z,48.10
2019-03-03T10:34:01.655Z,55.67
2019-03-03T10:36:44.103Z,47.00
2019-03-03T10:39:19.713Z,53.77
2019-03-03T10:42:20.198Z,44.97
2019-03-03T10:45:08.823Z,46.70
2019-03-03T10:48:09.867Z,48.97
2019-03-03T10:51:01.922Z,50.67
2019-03-03T10:53:47.270Z,49.43
2019-03-03T10:56:34.436Z,43.60
2019-03-03T10:59:32.269Z,42.80
2019-03-03T11:02:18.670Z,44.03
2019-03-03T11:05:17.299Z,43.83
2019-03-03T11:08:03.476Z,39.00
2019-03-03T11:10:57.394Z,37.93
2019-03-03T11:13:39.947Z,43.23
2019-03-03T11:16:43.482Z,37.87
2019-03-03T11:19:26.821Z,38.57
2019-03-03T11:22:07.624Z,42.90
2019-03-03T11:24:59.306Z,41.37
2019-03-03T11:27:43.728Z,35.63
2019-03-03T11:30:39.439Z,35.87
2019-03-03T11:33:29.102Z,36.27
2019-03-03T11:36:20.524Z,31.83
2019-03-03T11:39:10.065Z,34.37
2019-03-03T11:42:07.463Z,30.63
2019-03-03T11:44:50.171Z,34.73
2019-03-03T11:47:28.765Z,31.70
2019-03-03T11:50:15.509Z,36.10
2019-03-03T11:52:58.382Z,29.00
2019-03-03T11:55:35.527Z,32.10
2019-03-03T11:58:24.415Z,33.87
2019-03-03T12:01:08.600Z,32.57
2019-03-03T12:03:55.871Z,32.43
2019-03-03T12:06:40.194Z,25.90
2019-03-03T12:09:36.107Z,28.53
2019-03-03T12:12:19.885Z,33.77
2019-03-03T12:15:14.297Z,31.90
2019-03-03T12:18:00.066Z,31.00
2019-03-03T12:21:03.935Z,33.27
2019-03-03T12:24:10.520Z,32.27
2019-03-03T12:27:08.146Z,32.23
2019-03-03T12:29:50.969Z,32.90
2019-03-03T12:32:48.466Z,28.27
2019-03-03T12:35:28.359Z,31.03
2019-03-03T12:38:15.836Z,28.10
2019-03-03T12:41:07.684Z,29.87
2019-03-03T12:43:53.072Z,27.40
2019-03-03T12:46:46.659Z,23.33
2019-03-03T12:49:47.522Z,28.30
2019-03-03T12:52:34.711Z,26.47
2019-03-03T12:55:29.318Z,23.63
2019-03-03T12:58:24.167Z,28.87
2019-03-03T13:01:25.399Z,26.77
2019-03-03T13:04:12.826Z,23.90
2019-03-03T13:07:08.121Z,29.20
2019-03-03T13:09:53.125Z,26.97
2019-03-03T13:12:48.657Z,20.23
2019-03-03T13:15:46.038Z,25.87
2019-03-03T13:18:25.136Z,20.90
2019-03-03T13:21:22.727Z,19.27
2019-03-03T13:24:19.983Z,23.37
2019-03-03T13:27:08.850Z,26.10
2019-03-03T13:30:00.618Z,18.80
2019-03-03T13:32:52.179Z,22.20
2019-03-03T13:35:29.195Z,21.07
2019-03-03T13:38:07.494Z,17.03
2019-03-03T13:40:47.987Z,19.77
2019-03-03T13:43:17.790Z,21.57
2019-03-03T13:45:47.664Z,19.53
2019-03-03T13:48:17.539Z,17.80
2019-03-03T13:50:47.935Z,23.13
2019-03-03T13:53:18.004Z,17.47
2019-03-03T13:55:47.853Z,21.37
2019-03-03T13:58:17.703Z,20.13
2019-03-03T14:00:47.422Z,18.20
2019-03-03T14:03:17.359Z,19.57
2019-03-03T14:05:47.228Z,19.03
2019-03-03T14:08:21.598Z,19.37
2019-03-03T14:10:51.305Z,19.60
2019-03-03T14:13:22.400Z,19.63
2019-03-03T14:15:52.215Z,17.67
2019-03-03T14:18:22.128Z,19.50
2019-03-03T14:20:52.010Z,20.07
2019-03-03T14:23:24.189Z,20.50
2019-03-03T14:25:53.928Z,17.87
2019-03-03T14:28:23.948Z,19.17
2019-03-03T14:30:54.322Z,15.23
2019-03-03T14:33:24.252Z,22.13
2019-03-03T14:35:53.971Z,13.63
2019-03-03T14:38:23.740Z,16.43
2019-03-03T14:40:53.534Z,15.17
2019-03-03T14:43:23.392Z,15.67
2019-03-03T14:45:53.229Z,16.47
2019-03-03T14:48:23.227Z,15.73
2019-03-03T14:50:53.273Z,13.80
2019-03-03T14:53:23.560Z,14.30
2019-03-03T14:55:53.507Z,10.80
2019-03-03T14:58:23.419Z,18.80
2019-03-03T15:00:54.137Z,16.37
2019-03-03T15:03:25.071Z,18.00
2019-03-03T15:05:55.297Z,17.50
2019-03-03T15:08:25.181Z,13.43
2019-03-03T15:10:55.020Z,14.30
2019-03-03T15:13:24.800Z,13.53
2019-03-03T15:15:54.946Z,14.20
2019-03-03T15:18:24.872Z,16.73
2019-03-03T15:20:54.791Z,16.37
2019-03-03T15:23:26.394Z,16.13
2019-03-03T15:25:56.250Z,17.70
2019-03-03T15:28:26.265Z,17.40
2019-03-03T15:30:57.296Z,13.83
2019-03-03T15:33:27.727Z,19.57
2019-03-03T15:35:57.553Z,18.97
2019-03-03T15:38:27.318Z,19.93
2019-03-03T15:40:57.098Z,18.63
2019-03-03T15:43:28.386Z,20.50
2019-03-03T15:45:58.241Z,20.17
2019-03-03T15:48:32.080Z,22.13
2019-03-03T15:51:01.891Z,17.57
2019-03-03T15:53:31.710Z,17.93
2019-03-03T15:56:01.717Z,19.80
2019-03-03T15:58:31.461Z,24.03
2019-03-03T16:01:01.437Z,22.03
2019-03-03T16:03:31.307Z,24.07
2019-03-03T16:06:01.378Z,17.47
2019-03-03T16:08:40.417Z,23.60
2019-03-03T16:11:10.386Z,17.50
2019-03-03T16:13:40.171Z,20.70
2019-03-03T16:16:12.741Z,19.73
2019-03-03T16:18:44.005Z,23.17
2019-03-03T16:21:13.729Z,18.47
2019-03-03T16:23:45.582Z,19.77
2019-03-03T16:26:18.513Z,16.00
2019-03-03T16:28:48.270Z,16.80
2019-03-03T16:31:18.088Z,20.47
2019-03-03T16:33:47.867Z,18.23
2019-03-03T16:36:17.619Z,19.50
2019-03-03T16:38:47.390Z,22.00
2019-03-03T16:41:17.155Z,18.60
2019-03-03T16:43:46.998Z,17.80
2019-03-03T16:46:16.723Z,19.90
2019-03-03T16:48:47.080Z,17.83
2019-03-03T16:51:16.899Z,16.73
2019-03-03T16:53:46.749Z,17.30
2019-03-03T16:56:16.620Z,19.77
2019-03-03T16:58:46.401Z,18.00
2019-03-03T17:01:16.294Z,16.53
2019-03-03T17:03:46.208Z,17.37
2019-03-03T17:06:16.208Z,20.53
2019-03-03T17:08:46.124Z,20.30
2019-03-03T17:11:16.152Z,16.93
2019-03-03T17:13:46.075Z,17.67
2019-03-03T17:16:17.118Z,17.07
2019-03-03T17:18:47.207Z,22.83
2019-03-03T17:21:17.134Z,20.40
2019-03-03T17:24:59.987Z,19.87
2019-03-03T17:26:28.139Z,24.87
2019-03-03T17:28:59.123Z,22.77
2019-03-03T17:31:28.999Z,23.53
2019-03-03T17:33:59.180Z,17.40
2019-03-03T17:36:29.339Z,16.20
2019-03-03T17:38:59.517Z,20.97
2019-03-03T17:41:29.354Z,26.73
2019-03-03T17:43:59.447Z,15.90
2019-03-03T17:46:29.291Z,19.07
2019-03-03T17:49:00.589Z,20.40
2019-03-03T17:51:29.622Z,17.13
2019-03-03T17:53:59.594Z,19.90
2019-03-03T17:56:29.415Z,23.17
2019-03-03T17:59:01.721Z,19.77
2019-03-03T18:01:34.808Z,20.00
2019-03-03T18:04:04.454Z,17.23
2019-03-03T18:06:38.689Z,19.17
2019-03-03T18:09:08.095Z,20.33
2019-03-03T18:11:37.963Z,20.10
2019-03-03T18:14:08.066Z,17.60
2019-03-03T18:16:43.981Z,23.97
2019-03-03T18:19:17.549Z,19.27
2019-03-03T18:21:47.444Z,20.17
2019-03-03T18:24:17.298Z,22.87
2019-03-03T18:26:47.168Z,15.57
2019-03-03T18:29:17.040Z,18.53
2019-03-03T18:31:47.088Z,19.30
2019-03-03T18:34:16.857Z,20.23
2019-03-03T18:36:46.691Z,23.33
2019-03-03T18:39:16.605Z,21.77
2019-03-03T18:41:46.439Z,17.90
2019-03-03T18:44:16.316Z,18.17
2019-03-03T18:46:46.217Z,22.33
2019-03-03T18:49:17.316Z,23.43
2019-03-03T18:51:47.280Z,21.20
2019-03-03T18:54:17.081Z,17.63
2019-03-03T18:56:46.946Z,15.97
2019-03-03T18:59:16.692Z,22.23
2019-03-03T19:01:46.528Z,21.40
2019-03-03T19:04:17.981Z,21.97
2019-03-03T19:06:48.019Z,21.07
2019-03-03T19:09:19.754Z,18.77
2019-03-03T19:11:49.761Z,22.47
2019-03-03T19:14:28.051Z,21.03
2019-03-03T19:16:51.073Z,18.40
2019-03-03T19:19:21.938Z,24.70
2019-03-03T19:21:51.992Z,18.70
2019-03-03T19:24:21.800Z,18.77
2019-03-03T19:26:51.127Z,16.77
2019-03-03T19:29:21.120Z,20.70
2019-03-03T19:31:50.449Z,18.63
2019-03-03T19:34:21.665Z,18.43
2019-03-03T19:36:50.898Z,17.40
2019-03-03T19:39:20.796Z,24.40
2019-03-03T19:41:51.028Z,16.60
2019-03-03T19:44:20.172Z,20.27
2019-03-03T19:46:50.632Z,19.20
2019-03-03T19:49:20.883Z,17.90
2019-03-03T19:51:50.950Z,20.10
2019-03-03T19:54:20.649Z,16.80
2019-03-03T19:56:50.513Z,20.03
2019-03-03T19:59:20.309Z,15.63
2019-03-03T20:01:50.117Z,21.07
2019-03-03T20:04:19.857Z,21.00
2019-03-03T20:06:49.990Z,18.33
2019-03-03T20:09:20.625Z,20.87
2019-03-03T20:11:50.364Z,19.73
2019-03-03T20:14:21.249Z,15.63
2019-03-03T20:16:51.795Z,18.93
2019-03-03T20:19:21.531Z,17.63
2019-03-03T20:21:51.326Z,17.50
2019-03-03T20:24:21.089Z,21.13
2019-03-03T20:26:50.918Z,23.17
2019-03-03T20:29:20.749Z,17.10
2019-03-03T20:31:50.486Z,18.20
2019-03-03T20:34:22.799Z,18.23
2019-03-03T20:36:52.557Z,16.10
2019-03-03T20:39:22.420Z,22.00
2019-03-03T20:41:52.457Z,23.03
2019-03-03T20:44:24.904Z,21.20
2019-03-03T20:46:53.993Z,21.20
2019-03-03T20:49:23.980Z,21.07
2019-03-03T20:51:55.160Z,21.57
2019-03-03T20:54:24.938Z,18.90
2019-03-03T20:56:54.021Z,27.47
2019-03-03T20:59:23.734Z,25.00
2019-03-03T21:01:53.445Z,22.57
2019-03-03T21:04:23.549Z,24.33
2019-03-03T21:06:53.375Z,15.67
2019-03-03T21:09:24.424Z,22.03
2019-03-03T21:11:54.628Z,20.37
2019-03-03T21:14:24.470Z,13.80
2019-03-03T21:16:54.266Z,15.60
2019-03-03T21:19:24.048Z,18.10
2019-03-03T21:21:54.093Z,20.37
2019-03-03T21:24:24.031Z,19.57
2019-03-03T21:26:55.900Z,21.30
2019-03-03T21:29:25.899Z,17.83
2019-03-03T21:31:55.648Z,17.83
2019-03-03T21:34:25.423Z,17.67
2019-03-03T21:36:55.209Z,20.63
2019-03-03T21:39:25.031Z,17.50
2019-03-03T21:41:55.147Z,17.70
2019-03-03T21:44:24.935Z,15.27
2019-03-03T21:46:54.699Z,17.63
2019-03-03T21:49:26.788Z,17.47
2019-03-03T21:51:56.587Z,17.43
2019-03-03T21:54:26.367Z,18.37
2019-03-03T21:56:56.225Z,17.30
2019-03-03T21:59:25.856Z,13.40
2019-03-03T22:01:55.746Z,17.73
2019-03-03T22:04:25.591Z,18.33
2019-03-03T22:06:55.395Z,18.60
2019-03-03T22:09:25.300Z,15.30
2019-03-03T22:11:56.507Z,17.77
2019-03-03T22:14:26.231Z,19.50
2019-03-03T22:16:55.925Z,16.30
2019-03-03T22:19:25.761Z,18.23
2019-03-03T22:21:56.222Z,18.17
2019-03-03T22:24:26.209Z,17.47
2019-03-03T22:26:56.034Z,14.53
2019-03-03T22:29:26.406Z,15.23
2019-03-03T22:31:56.203Z,16.33
2019-03-03T22:34:26.055Z,15.97
2019-03-03T22:36:57.033Z,16.53
2019-03-03T22:39:26.845Z,14.13
2019-03-03T22:41:56.854Z,19.00
2019-03-03T22:44:26.569Z,12.53
2019-03-03T22:46:56.332Z,15.87
2019-03-03T22:49:26.060Z,15.83
2019-03-03T22:51:55.859Z,14.70
2019-03-03T22:54:25.628Z,16.33
2019-03-03T22:56:55.379Z,17.57
2019-03-03T22:59:25.159Z,14.63
2019-03-03T23:01:54.869Z,13.53
2019-03-03T23:04:59.502Z,15.63
2019-03-03T23:08:00.424Z,20.77
2019-03-03T23:10:42.684Z,18.60
2019-03-03T23:13:30.830Z,16.37
2019-03-03T23:16:48.650Z,16.20
2019-03-03T23:20:01.958Z,12.70
2019-03-03T23:23:06.653Z,16.50
2019-03-03T23:25:53.833Z,19.90
2019-03-03T23:28:24.662Z,15.23
2019-03-03T23:30:55.468Z,15.83
2019-03-03T23:33:25.231Z,15.63
2019-03-03T23:35:54.934Z,14.13
2019-03-03T23:38:24.939Z,14.70
2019-03-03T23:40:54.687Z,14.50
2019-03-03T23:43:24.527Z,15.63
2019-03-03T23:45:54.390Z,17.60
2019-03-03T23:48:24.142Z,16.97
2019-03-03T23:50:53.912Z,16.30
2019-03-03T23:53:23.623Z,12.93
2019-03-03T23:55:53.445Z,14.33
2019-03-03T23:58:23.189Z,12.70
